Time;durP1;ratioP1;P1;durP2;ratioP2;P2;SDS_P1;SDS_P2;PMS_P1;PMS_P2;Temp;Humidity;BMP_temperature;BMP_pressure;BME280_temperature;BME280_humidity;BME280_pressure;Samples;Min_cycle;Max_cycle;Signal;HPM_P1;HPM_P2
2021/08/07 00:00:49;;;;;;;;;;;16.60;99.90;;;;;;5055210;28;19916;-85
2021/08/07 00:03:15;;;;;;;;;;;16.60;99.90;;;;;;5070755;28;19973;-81
2021/08/07 00:05:41;;;;;;;;;;;16.60;99.90;;;;;;5086563;28;20295;-82
2021/08/07 00:08:07;;;;;;;;;;;16.60;99.90;;;;;;5076991;28;19909;-80
2021/08/07 00:10:32;;;;;;;;;;;16.60;99.90;;;;;;5073492;28;19934;-84
2021/08/07 00:13:00;;;;;;;;;;;16.60;99.90;;;;;;5064006;28;19920;-80
2021/08/07 00:15:26;;;;;;;;;;;16.60;99.90;;;;;;5074411;28;19979;-83
2021/08/07 00:17:51;;;;;;;;;;;16.60;99.90;;;;;;5074955;28;19919;-83
2021/08/07 00:20:17;;;;;;;;;;;16.50;99.90;;;;;;5061057;28;20316;-82
2021/08/07 00:22:42;;;;;;;;;;;16.50;99.90;;;;;;5075213;28;20034;-83
2021/08/07 00:25:08;;;;;;;;;;;16.60;99.90;;;;;;5075145;28;19917;-85
2021/08/07 00:27:34;;;;;;;;;;;16.50;99.90;;;;;;5072153;28;19923;-86
2021/08/07 00:29:59;;;;;;;;;;;16.50;99.90;;;;;;5074325;28;19909;-83
2021/08/07 00:32:25;;;;;;;;;;;16.50;99.90;;;;;;5072739;28;19916;-83
2021/08/07 00:34:51;;;;;;;;;;;16.50;99.90;;;;;;5061602;28;19917;-84
2021/08/07 00:37:16;;;;;;;;;;;16.40;99.90;;;;;;5066382;28;19999;-84
2021/08/07 00:39:42;;;;;;;;;;;16.40;99.90;;;;;;5072518;28;20065;-81
2021/08/07 00:42:07;;;;;;;;;;;16.40;99.90;;;;;;5073974;28;19912;-81
2021/08/07 00:44:33;;;;;;;;;;;16.40;99.90;;;;;;5071976;28;20021;-82
2021/08/07 00:46:58;;;;;;;;;;;16.30;99.90;;;;;;5073952;28;19918;-82
2021/08/07 00:49:24;;;;;;;;;;;16.30;99.90;;;;;;5073566;28;19912;-83
2021/08/07 00:51:50;;;;;;;;;;;16.30;99.90;;;;;;5072861;28;20227;-82
2021/08/07 00:54:16;;;;;;;;;;;16.30;99.90;;;;;;5072885;28;20211;-85
2021/08/07 00:56:41;;;;;;;;;;;16.20;99.90;;;;;;5071927;28;19915;-83
2021/08/07 00:59:07;;;;;;;;;;;16.20;99.90;;;;;;5076890;28;19916;-83
2021/08/07 01:01:36;;;;;;;;;;;16.20;99.90;;;;;;5061607;28;20015;-81
2021/08/07 01:04:03;;;;;;;;;;;16.10;99.90;;;;;;5068469;28;19912;-86
2021/08/07 01:06:35;;;;;;;;;;;16.10;99.90;;;;;;5077812;28;19915;-81
2021/08/07 01:09:08;;;;;;;;;;;16.00;99.90;;;;;;5071702;28;19916;-83
2021/08/07 01:11:43;;;;;;;;;;;16.00;99.90;;;;;;5063067;28;19944;-83
2021/08/07 01:14:09;;;;;;;;;;;16.00;99.90;;;;;;5072568;28;19917;-81
2021/08/07 01:16:42;;;;;;;;;;;15.90;99.90;;;;;;5068154;28;19966;-83
2021/08/07 01:19:14;;;;;;;;;;;15.90;99.90;;;;;;5070774;28;20003;-81
2021/08/07 01:21:53;;;;;;;;;;;15.90;99.90;;;;;;5079955;28;19916;-83
2021/08/07 01:24:30;;;;;;;;;;;15.90;99.90;;;;;;5083960;28;19951;-80
2021/08/07 01:26:59;;;;;;;;;;;15.90;99.90;;;;;;5074368;28;19908;-84
2021/08/07 01:29:26;;;;;;;;;;;15.90;99.90;;;;;;5075525;28;19963;-83
2021/08/07 01:31:53;;;;;;;;;;;15.80;99.90;;;;;;5080862;28;19916;-86
2021/08/07 01:34:19;;;;;;;;;;;15.80;99.90;;;;;;5065314;28;20007;-82
2021/08/07 01:36:45;;;;;;;;;;;15.70;99.90;;;;;;5075956;28;19917;-84
2021/08/07 01:39:11;;;;;;;;;;;15.70;99.90;;;;;;5090679;28;19954;-81
2021/08/07 01:41:37;;;;;;;;;;;15.70;99.90;;;;;;5069242;28;19921;-84
2021/08/07 01:44:02;;;;;;;;;;;15.70;99.90;;;;;;5068196;28;19948;-80
2021/08/07 01:46:32;;;;;;;;;;;15.70;99.90;;;;;;5076563;28;20318;-82
2021/08/07 01:49:05;;;;;;;;;;;15.70;99.90;;;;;;5063894;28;19917;-83
2021/08/07 01:51:38;;;;;;;;;;;15.70;99.90;;;;;;5071608;28;19948;-84
2021/08/07 01:54:05;;;;;;;;;;;15.70;99.90;;;;;;5076116;28;19938;-84
2021/08/07 01:56:35;;;;;;;;;;;15.70;99.90;;;;;;5072778;28;19913;-84
2021/08/07 01:59:06;;;;;;;;;;;15.70;99.90;;;;;;5074543;28;20038;-84
2021/08/07 02:01:32;;;;;;;;;;;15.60;99.90;;;;;;5076525;28;20011;-83
2021/08/07 02:03:58;;;;;;;;;;;15.50;99.90;;;;;;5074854;28;19992;-80
2021/08/07 02:06:24;;;;;;;;;;;15.50;99.90;;;;;;5074587;28;19916;-83
2021/08/07 02:08:50;;;;;;;;;;;15.50;99.90;;;;;;5072393;28;19936;-82
2021/08/07 02:11:16;;;;;;;;;;;15.50;99.90;;;;;;5067426;28;20322;-83
2021/08/07 02:13:43;;;;;;;;;;;15.50;99.90;;;;;;5068236;28;20027;-84
2021/08/07 02:16:08;;;;;;;;;;;15.50;99.90;;;;;;5073000;28;20028;-80
2021/08/07 02:18:34;;;;;;;;;;;15.50;99.90;;;;;;5084130;28;21131;-83
2021/08/07 02:21:00;;;;;;;;;;;15.50;99.90;;;;;;5073089;28;19913;-81
2021/08/07 02:23:26;;;;;;;;;;;15.50;99.90;;;;;;5080670;28;20004;-86
2021/08/07 02:25:57;;;;;;;;;;;15.50;99.90;;;;;;5075437;28;20122;-86
2021/08/07 02:28:24;;;;;;;;;;;15.50;99.90;;;;;;5075118;28;20287;-83
2021/08/07 02:30:51;;;;;;;;;;;15.50;99.90;;;;;;5066321;28;19912;-85
2021/08/07 02:33:18;;;;;;;;;;;15.40;99.90;;;;;;5075525;28;19915;-81
2021/08/07 02:35:44;;;;;;;;;;;15.40;99.90;;;;;;5075299;28;19944;-87
2021/08/07 02:38:10;;;;;;;;;;;15.40;99.90;;;;;;5076215;28;19915;-87
2021/08/07 02:40:36;;;;;;;;;;;15.50;99.90;;;;;;5074069;28;19916;-82
2021/08/07 02:43:02;;;;;;;;;;;15.50;99.90;;;;;;5075632;28;20003;-85
2021/08/07 02:45:28;;;;;;;;;;;15.40;99.90;;;;;;5073229;28;20173;-85
2021/08/07 02:47:53;;;;;;;;;;;15.40;99.90;;;;;;5073121;28;20256;-85
2021/08/07 02:50:19;;;;;;;;;;;15.40;99.90;;;;;;5071225;28;19908;-88
2021/08/07 02:52:45;;;;;;;;;;;15.40;99.90;;;;;;5074939;28;19916;-87
2021/08/07 02:55:11;;;;;;;;;;;15.40;99.90;;;;;;5073298;28;19913;-81
2021/08/07 02:57:36;;;;;;;;;;;15.40;99.90;;;;;;5078445;28;19913;-85
2021/08/07 03:00:02;;;;;;;;;;;15.30;99.90;;;;;;5069092;28;20015;-82
2021/08/07 03:02:28;;;;;;;;;;;15.40;99.90;;;;;;5074939;28;19912;-82
2021/08/07 03:04:53;;;;;;;;;;;15.50;99.90;;;;;;5068153;28;20079;-83
2021/08/07 03:07:19;;;;;;;;;;;15.50;99.90;;;;;;5086258;28;20215;-85
2021/08/07 03:09:45;;;;;;;;;;;15.50;99.90;;;;;;5070630;28;19912;-86
2021/08/07 03:12:10;;;;;;;;;;;15.50;99.90;;;;;;5067348;28;19919;-83
2021/08/07 03:14:37;;;;;;;;;;;15.50;99.90;;;;;;5067594;28;19946;-86
2021/08/07 03:17:02;;;;;;;;;;;15.50;99.90;;;;;;5075679;28;19908;-85
2021/08/07 03:19:28;;;;;;;;;;;15.50;99.90;;;;;;5075023;28;19962;-85
2021/08/07 03:21:53;;;;;;;;;;;15.50;99.90;;;;;;5075075;28;20025;-89
2021/08/07 03:24:19;;;;;;;;;;;15.50;99.90;;;;;;5074650;28;19909;-82
2021/08/07 03:26:45;;;;;;;;;;;15.50;99.90;;;;;;5074281;28;20253;-84
2021/08/07 03:29:10;;;;;;;;;;;15.50;99.90;;;;;;5075483;28;19908;-88
2021/08/07 03:31:36;;;;;;;;;;;15.50;99.90;;;;;;5070107;28;20334;-83
2021/08/07 03:34:02;;;;;;;;;;;15.50;99.90;;;;;;5088744;28;19923;-81
2021/08/07 03:36:28;;;;;;;;;;;15.50;99.90;;;;;;5079450;28;19916;-86
2021/08/07 03:38:53;;;;;;;;;;;15.50;99.90;;;;;;5082752;28;19916;-86
2021/08/07 03:41:19;;;;;;;;;;;15.50;99.90;;;;;;5087604;28;19926;-84
2021/08/07 03:43:44;;;;;;;;;;;15.50;99.90;;;;;;5087187;28;19927;-81
2021/08/07 03:46:10;;;;;;;;;;;15.50;99.90;;;;;;5078732;28;20306;-82
2021/08/07 03:48:36;;;;;;;;;;;15.50;99.90;;;;;;5088078;28;19912;-82
2021/08/07 03:51:01;;;;;;;;;;;15.50;99.90;;;;;;5085329;28;19913;-82
2021/08/07 03:53:27;;;;;;;;;;;15.50;99.90;;;;;;5092766;28;19976;-80
2021/08/07 03:55:52;;;;;;;;;;;15.60;99.90;;;;;;5077705;28;20330;-82
2021/08/07 03:58:18;;;;;;;;;;;15.60;99.90;;;;;;5070148;28;19916;-83
2021/08/07 04:00:43;;;;;;;;;;;15.60;99.90;;;;;;5074188;28;19921;-81
2021/08/07 04:03:09;;;;;;;;;;;15.60;99.90;;;;;;5073851;28;20290;-83
2021/08/07 04:05:35;;;;;;;;;;;15.60;99.90;;;;;;5073410;28;19920;-89
2021/08/07 04:08:04;;;;;;;;;;;15.60;99.90;;;;;;5075952;28;19908;-83
2021/08/07 04:10:30;;;;;;;;;;;15.70;99.90;;;;;;5071955;28;20354;-82
2021/08/07 04:12:56;;;;;;;;;;;15.70;99.90;;;;;;5065789;28;20334;-84
2021/08/07 04:15:22;;;;;;;;;;;15.70;99.90;;;;;;5069430;28;19912;-85
2021/08/07 04:17:47;;;;;;;;;;;15.60;99.90;;;;;;5076241;28;19913;-84
2021/08/07 04:20:13;;;;;;;;;;;15.70;99.90;;;;;;5072864;28;20188;-82
2021/08/07 04:22:39;;;;;;;;;;;15.70;99.90;;;;;;5062545;28;20059;-81
2021/08/07 04:25:06;;;;;;;;;;;15.70;99.90;;;;;;5074766;28;19912;-85
2021/08/07 04:27:31;;;;;;;;;;;15.80;99.90;;;;;;5072444;28;19919;-82
2021/08/07 04:29:57;;;;;;;;;;;15.70;99.90;;;;;;5085223;28;19916;-82
2021/08/07 04:32:23;;;;;;;;;;;15.70;99.90;;;;;;5079387;28;19978;-81
2021/08/07 04:34:49;;;;;;;;;;;15.60;99.90;;;;;;5071778;28;19970;-83
2021/08/07 04:37:14;;;;;;;;;;;15.70;99.90;;;;;;5073791;28;19908;-83
2021/08/07 04:39:40;;;;;;;;;;;15.60;99.90;;;;;;5073281;28;19919;-83
2021/08/07 04:42:06;;;;;;;;;;;15.60;99.90;;;;;;5073290;28;19931;-83
2021/08/07 04:44:31;;;;;;;;;;;15.60;99.90;;;;;;5073322;28;20303;-84
2021/08/07 04:46:57;;;;;;;;;;;15.60;99.90;;;;;;5071298;28;19917;-85
2021/08/07 04:49:22;;;;;;;;;;;15.60;99.90;;;;;;5070203;28;19992;-81
2021/08/07 04:51:48;;;;;;;;;;;15.60;99.90;;;;;;5071141;28;19917;-83
2021/08/07 04:54:13;;;;;;;;;;;15.50;99.90;;;;;;5073122;28;20321;-83
2021/08/07 04:56:39;;;;;;;;;;;15.50;99.90;;;;;;5067358;28;20003;-83
2021/08/07 04:59:05;;;;;;;;;;;15.60;99.90;;;;;;5077659;28;20307;-83
2021/08/07 05:01:31;;;;;;;;;;;15.60;99.90;;;;;;5077606;28;19970;-82
2021/08/07 05:03:57;;;;;;;;;;;15.50;99.90;;;;;;5077758;28;19909;-82
2021/08/07 05:06:22;;;;;;;;;;;15.50;99.90;;;;;;5076646;28;20109;-83
2021/08/07 05:08:50;;;;;;;;;;;15.60;99.90;;;;;;5076929;28;19944;-82
2021/08/07 05:11:15;;;;;;;;;;;15.60;99.90;;;;;;5076158;28;19912;-83
2021/08/07 05:13:41;;;;;;;;;;;15.50;99.90;;;;;;5074327;28;20226;-82
2021/08/07 05:16:06;;;;;;;;;;;15.50;99.90;;;;;;5077390;28;19912;-81
2021/08/07 05:18:32;;;;;;;;;;;15.50;99.90;;;;;;5073444;28;19909;-81
2021/08/07 05:20:58;;;;;;;;;;;15.50;99.90;;;;;;5065119;28;20028;-82
2021/08/07 05:23:23;;;;;;;;;;;15.60;99.90;;;;;;5072822;28;19916;-81
2021/08/07 05:25:49;;;;;;;;;;;15.60;99.90;;;;;;5070425;28;19913;-83
2021/08/07 05:28:14;;;;;;;;;;;15.70;99.90;;;;;;5062178;28;20296;-82
2021/08/07 05:30:40;;;;;;;;;;;15.70;99.90;;;;;;5076824;28;19909;-84
2021/08/07 05:33:06;;;;;;;;;;;15.80;99.90;;;;;;5070937;28;19948;-81
2021/08/07 05:35:31;;;;;;;;;;;15.80;99.90;;;;;;5066690;28;19920;-81
2021/08/07 05:37:57;;;;;;;;;;;15.80;99.90;;;;;;5064833;28;20304;-82
2021/08/07 05:40:22;;;;;;;;;;;15.90;99.90;;;;;;5065106;28;19935;-81
2021/08/07 05:42:48;;;;;;;;;;;15.90;99.90;;;;;;5065330;28;19916;-81
2021/08/07 05:45:14;;;;;;;;;;;15.90;99.90;;;;;;5069435;28;19964;-79
2021/08/07 05:47:40;;;;;;;;;;;16.00;99.90;;;;;;5079649;28;19916;-85
2021/08/07 05:50:06;;;;;;;;;;;16.00;99.90;;;;;;5074147;28;19943;-84
2021/08/07 05:52:32;;;;;;;;;;;16.00;99.90;;;;;;5069249;28;20311;-83
2021/08/07 05:54:57;;;;;;;;;;;16.10;99.90;;;;;;5087921;28;19951;-82
2021/08/07 05:57:23;;;;;;;;;;;16.10;99.90;;;;;;5074626;28;20003;-81
2021/08/07 05:59:48;;;;;;;;;;;16.10;99.90;;;;;;5080108;28;19916;-81
2021/08/07 06:02:14;;;;;;;;;;;16.10;99.90;;;;;;5084752;28;19934;-80
2021/08/07 06:04:40;;;;;;;;;;;16.20;99.90;;;;;;5070745;28;19920;-83
2021/08/07 06:07:05;;;;;;;;;;;16.20;99.90;;;;;;5072328;28;19965;-84
2021/08/07 06:09:31;;;;;;;;;;;16.20;99.90;;;;;;5075630;28;19912;-80
2021/08/07 06:11:56;;;;;;;;;;;16.30;99.90;;;;;;5074004;28;19974;-83
2021/08/07 06:14:22;;;;;;;;;;;16.30;99.90;;;;;;5078310;28;19969;-80
2021/08/07 06:16:48;;;;;;;;;;;16.30;99.90;;;;;;5070445;28;19917;-78
2021/08/07 06:19:13;;;;;;;;;;;16.40;99.90;;;;;;5070291;28;19917;-82
2021/08/07 06:21:39;;;;;;;;;;;16.40;99.90;;;;;;5071036;28;19921;-83
2021/08/07 06:24:05;;;;;;;;;;;16.40;99.90;;;;;;5073540;28;20319;-82
2021/08/07 06:26:30;;;;;;;;;;;16.40;99.90;;;;;;5063289;28;19928;-80
2021/08/07 06:28:56;;;;;;;;;;;16.50;99.90;;;;;;5068224;28;19913;-85
2021/08/07 06:31:21;;;;;;;;;;;16.50;99.90;;;;;;5079213;28;19920;-83
2021/08/07 06:33:47;;;;;;;;;;;16.60;99.90;;;;;;5069779;28;19920;-83
2021/08/07 06:36:14;;;;;;;;;;;16.60;99.90;;;;;;5070574;28;19913;-83
2021/08/07 06:38:41;;;;;;;;;;;16.70;99.90;;;;;;5066947;28;19917;-85
2021/08/07 06:41:07;;;;;;;;;;;16.70;99.90;;;;;;5062329;28;20023;-82
2021/08/07 06:43:33;;;;;;;;;;;16.70;99.90;;;;;;5066785;28;20023;-82
2021/08/07 06:45:58;;;;;;;;;;;16.80;99.90;;;;;;5072179;28;19931;-83
2021/08/07 06:48:24;;;;;;;;;;;16.80;99.90;;;;;;5064101;28;19999;-82
2021/08/07 06:50:50;;;;;;;;;;;16.90;99.90;;;;;;5071822;28;19917;-80
2021/08/07 06:53:15;;;;;;;;;;;16.90;99.90;;;;;;5071948;28;20058;-83
2021/08/07 06:55:41;;;;;;;;;;;17.00;99.90;;;;;;5062504;28;19917;-84
2021/08/07 06:58:07;;;;;;;;;;;17.00;99.90;;;;;;5074796;28;19913;-85
2021/08/07 07:00:34;;;;;;;;;;;17.10;99.90;;;;;;5074628;28;19928;-85
2021/08/07 07:03:00;;;;;;;;;;;17.20;99.90;;;;;;5075308;28;19965;-83
2021/08/07 07:05:32;;;;;;;;;;;17.30;99.90;;;;;;5072490;28;20007;-80
2021/08/07 07:07:58;;;;;;;;;;;17.40;99.90;;;;;;5076336;28;19959;-85
2021/08/07 07:10:24;;;;;;;;;;;17.50;99.90;;;;;;5073550;28;19961;-81
2021/08/07 07:12:50;;;;;;;;;;;17.50;99.90;;;;;;5073407;28;20007;-80
2021/08/07 07:15:17;;;;;;;;;;;17.70;99.90;;;;;;5074497;28;19915;-82
2021/08/07 07:17:43;;;;;;;;;;;17.80;99.90;;;;;;5074757;28;19951;-82
2021/08/07 07:20:08;;;;;;;;;;;17.80;99.90;;;;;;5075745;28;20009;-84
2021/08/07 07:22:34;;;;;;;;;;;17.80;99.90;;;;;;5071228;28;20365;-83
2021/08/07 07:25:00;;;;;;;;;;;17.80;99.90;;;;;;5080504;28;19912;-86
2021/08/07 07:27:26;;;;;;;;;;;17.90;99.90;;;;;;5091789;28;19912;-82
2021/08/07 07:29:51;;;;;;;;;;;17.90;99.90;;;;;;5077379;28;20330;-81
2021/08/07 07:32:18;;;;;;;;;;;17.80;99.90;;;;;;5071255;28;19925;-83
2021/08/07 07:34:44;;;;;;;;;;;17.90;99.90;;;;;;5082546;28;19912;-84
2021/08/07 07:37:09;;;;;;;;;;;17.90;99.90;;;;;;5078735;28;19919;-81
2021/08/07 07:39:35;;;;;;;;;;;17.80;99.90;;;;;;5085415;28;19916;-83
2021/08/07 07:42:01;;;;;;;;;;;17.80;99.90;;;;;;5082549;28;19927;-82
2021/08/07 07:44:26;;;;;;;;;;;17.80;99.90;;;;;;5077387;28;19919;-85
2021/08/07 07:46:52;;;;;;;;;;;17.80;99.90;;;;;;5071762;28;19924;-82
2021/08/07 07:49:18;;;;;;;;;;;18.00;99.90;;;;;;5075937;28;20013;-84
2021/08/07 07:51:43;;;;;;;;;;;18.10;99.90;;;;;;5078702;28;19916;-82
2021/08/07 07:54:09;;;;;;;;;;;18.20;99.90;;;;;;5067423;28;19913;-84
2021/08/07 07:56:34;;;;;;;;;;;18.30;99.90;;;;;;5087674;28;20387;-82
2021/08/07 07:59:00;;;;;;;;;;;18.40;99.90;;;;;;5062423;28;19920;-81
2021/08/07 08:01:26;;;;;;;;;;;18.50;99.90;;;;;;5071185;28;19917;-80
2021/08/07 08:03:51;;;;;;;;;;;18.40;99.90;;;;;;5069783;28;19919;-84
2021/08/07 08:06:17;;;;;;;;;;;18.40;99.90;;;;;;5072511;28;19920;-79
2021/08/07 08:08:42;;;;;;;;;;;18.40;99.90;;;;;;5072079;28;20278;-79
2021/08/07 08:11:08;;;;;;;;;;;18.30;99.90;;;;;;5070786;28;19923;-81
2021/08/07 08:13:34;;;;;;;;;;;18.30;99.90;;;;;;5076150;28;19995;-83
2021/08/07 08:15:59;;;;;;;;;;;18.20;99.90;;;;;;5075603;28;19916;-82
2021/08/07 08:18:25;;;;;;;;;;;18.10;99.90;;;;;;5080386;28;19966;-83
2021/08/07 08:20:51;;;;;;;;;;;18.10;99.90;;;;;;5081478;28;19946;-81
2021/08/07 08:23:17;;;;;;;;;;;18.00;99.90;;;;;;5086646;28;19920;-84
2021/08/07 08:25:42;;;;;;;;;;;18.10;99.90;;;;;;5068494;28;19920;-84
2021/08/07 08:28:08;;;;;;;;;;;18.10;99.90;;;;;;5082830;28;19916;-81
2021/08/07 08:30:34;;;;;;;;;;;18.10;99.90;;;;;;5077206;28;20296;-82
2021/08/07 08:33:00;;;;;;;;;;;18.10;99.90;;;;;;5062953;28;19916;-83
2021/08/07 08:35:26;;;;;;;;;;;18.10;99.90;;;;;;5077335;28;20018;-83
2021/08/07 08:37:51;;;;;;;;;;;18.10;99.90;;;;;;5075815;28;19965;-86
2021/08/07 08:40:17;;;;;;;;;;;18.00;99.90;;;;;;5077813;28;20208;-81
2021/08/07 08:42:44;;;;;;;;;;;18.00;99.90;;;;;;5063448;28;19909;-83
2021/08/07 08:45:10;;;;;;;;;;;18.00;99.90;;;;;;5071495;28;19969;-81
2021/08/07 08:47:36;;;;;;;;;;;17.90;99.90;;;;;;5081167;28;19948;-81
2021/08/07 08:50:02;;;;;;;;;;;18.00;99.90;;;;;;5089213;28;19951;-84
2021/08/07 08:52:29;;;;;;;;;;;18.00;99.90;;;;;;5080372;28;19916;-82
2021/08/07 08:54:55;;;;;;;;;;;18.00;99.90;;;;;;5091035;28;19959;-82
2021/08/07 08:57:21;;;;;;;;;;;18.10;99.90;;;;;;5090911;28;19951;-83
2021/08/07 08:59:47;;;;;;;;;;;18.10;99.90;;;;;;5082169;28;20584;-81
2021/08/07 09:02:13;;;;;;;;;;;18.20;99.90;;;;;;5094652;28;19924;-82
2021/08/07 09:04:39;;;;;;;;;;;18.40;99.90;;;;;;5080825;28;20011;-82
2021/08/07 09:07:05;;;;;;;;;;;18.50;99.90;;;;;;5083597;28;20012;-83
2021/08/07 09:09:35;;;;;;;;;;;18.60;99.90;;;;;;5068053;28;19913;-83
2021/08/07 09:12:01;;;;;;;;;;;18.70;99.90;;;;;;5070654;28;19927;-83
2021/08/07 09:14:28;;;;;;;;;;;18.70;99.90;;;;;;5069473;28;19913;-83
2021/08/07 09:17:04;;;;;;;;;;;18.80;99.90;;;;;;5067269;28;19965;-82
2021/08/07 09:19:39;;;;;;;;;;;18.90;99.90;;;;;;5082731;28;20034;-86
2021/08/07 09:22:11;;;;;;;;;;;19.00;99.90;;;;;;5068681;28;21100;-83
2021/08/07 09:25:13;;;;;;;;;;;19.00;99.90;;;;;;5069412;28;19961;-81
2021/08/07 09:27:51;;;;;;;;;;;19.10;99.90;;;;;;4983416;28;20012;-84
2021/08/07 09:30:16;;;;;;;;;;;19.50;99.90;;;;;;4993435;28;20000;-81
2021/08/07 09:32:45;;;;;;;;;;;20.00;99.90;;;;;;4982775;28;20025;-82
2021/08/07 09:35:11;;;;;;;;;;;20.40;99.90;;;;;;4974370;28;20004;-80
2021/08/07 09:37:37;;;;;;;;;;;20.80;99.90;;;;;;4975132;28;20032;-81
2021/08/07 09:40:04;;;;;;;;;;;21.00;99.90;;;;;;4994032;28;20033;-80
2021/08/07 09:42:31;;;;;;;;;;;21.00;99.90;;;;;;4977050;28;20260;-81
2021/08/07 09:45:04;;;;;;;;;;;20.80;99.90;;;;;;4993171;28;19956;-80
2021/08/07 09:47:30;;;;;;;;;;;20.50;99.90;;;;;;4977597;28;20249;-81
2021/08/07 09:49:56;;;;;;;;;;;20.50;99.90;;;;;;4993981;28;19964;-81
2021/08/07 09:52:21;;;;;;;;;;;20.40;99.90;;;;;;5005493;28;20290;-81
2021/08/07 09:54:47;;;;;;;;;;;20.60;99.90;;;;;;4978399;28;19922;-82
2021/08/07 09:57:24;;;;;;;;;;;20.90;99.90;;;;;;4989532;28;19918;-82
2021/08/07 09:59:50;;;;;;;;;;;21.10;99.90;;;;;;4994518;28;19918;-82
2021/08/07 10:02:31;;;;;;;;;;;21.20;99.90;;;;;;5066265;28;19920;-82
2021/08/07 10:04:57;;;;;;;;;;;21.10;99.90;;;;;;5077554;28;20284;-82
2021/08/07 10:07:23;;;;;;;;;;;21.10;99.90;;;;;;5082807;28;19994;-81
2021/08/07 10:09:49;;;;;;;;;;;21.20;99.90;;;;;;5076096;28;20011;-82
2021/08/07 10:12:15;;;;;;;;;;;21.30;99.90;;;;;;5075283;28;19908;-81
2021/08/07 10:14:41;;;;;;;;;;;21.30;99.90;;;;;;5083727;28;19920;-83
2021/08/07 10:17:08;;;;;;;;;;;21.20;99.90;;;;;;5059003;28;19916;-83
2021/08/07 10:19:34;;;;;;;;;;;21.10;99.90;;;;;;5073929;28;19947;-84
2021/08/07 10:22:00;;;;;;;;;;;21.00;99.90;;;;;;5070851;28;19916;-82
2021/08/07 10:24:28;;;;;;;;;;;20.90;99.90;;;;;;5081078;28;20204;-83
2021/08/07 10:26:55;;;;;;;;;;;20.90;99.90;;;;;;5065375;28;19909;-81
2021/08/07 10:29:25;;;;;;;;;;;21.00;99.90;;;;;;5076337;28;20211;-88
2021/08/07 10:31:52;;;;;;;;;;;21.10;99.90;;;;;;5074159;28;20303;-81
2021/08/07 10:34:20;;;;;;;;;;;21.30;99.90;;;;;;5072823;28;19912;-82
2021/08/07 10:36:46;;;;;;;;;;;21.50;99.90;;;;;;5072689;28;19909;-81
2021/08/07 10:39:12;;;;;;;;;;;21.60;99.90;;;;;;5072031;28;19924;-82
2021/08/07 10:41:37;;;;;;;;;;;21.80;99.90;;;;;;5072927;28;19931;-83
2021/08/07 10:44:04;;;;;;;;;;;21.70;99.90;;;;;;5080351;28;19912;-82
2021/08/07 10:46:30;;;;;;;;;;;21.70;99.90;;;;;;5075840;28;20324;-79
2021/08/07 10:48:56;;;;;;;;;;;21.70;99.90;;;;;;5077847;28;19912;-83
2021/08/07 10:51:22;;;;;;;;;;;21.70;99.90;;;;;;5088910;28;19987;-84
2021/08/07 10:53:58;;;;;;;;;;;21.40;99.90;;;;;;5074111;28;20257;-79
2021/08/07 10:56:27;;;;;;;;;;;21.20;99.90;;;;;;5071641;28;19916;-82
2021/08/07 10:58:53;;;;;;;;;;;20.80;99.90;;;;;;5076828;28;19913;-79
2021/08/07 11:03:49;;;;;;;;;;;19.90;99.90;;;;;;5062364;28;19913;-82
2021/08/07 11:06:14;;;;;;;;;;;19.50;99.90;;;;;;5062704;28;19912;-78
2021/08/07 11:08:40;;;;;;;;;;;19.10;99.90;;;;;;5063364;28;19917;-80
2021/08/07 11:11:25;;;;;;;;;;;18.70;99.90;;;;;;5064857;28;19920;-78
2021/08/07 11:13:51;;;;;;;;;;;18.40;99.90;;;;;;5064883;28;20334;-80
2021/08/07 11:16:18;;;;;;;;;;;18.20;99.90;;;;;;5067267;28;20379;-81
2021/08/07 11:18:44;;;;;;;;;;;18.10;99.90;;;;;;5066141;28;19913;-81
2021/08/07 11:21:28;;;;;;;;;;;18.10;99.90;;;;;;5066384;28;20046;-80
2021/08/07 11:23:54;;;;;;;;;;;18.30;99.90;;;;;;5079635;28;19913;-79
2021/08/07 11:26:39;;;;;;;;;;;18.70;99.90;;;;;;5064159;28;19921;-81
2021/08/07 11:29:08;;;;;;;;;;;18.80;99.90;;;;;;5066024;28;20242;-82
2021/08/07 11:31:34;;;;;;;;;;;19.20;99.90;;;;;;5063601;28;19924;-82
2021/08/07 11:34:19;;;;;;;;;;;19.40;99.90;;;;;;5072062;28;20030;-80
2021/08/07 11:37:03;;;;;;;;;;;19.70;99.90;;;;;;5073223;28;19912;-82
2021/08/07 11:39:48;;;;;;;;;;;20.00;99.90;;;;;;5069780;28;19916;-82
2021/08/07 11:42:35;;;;;;;;;;;20.00;99.90;;;;;;5066641;28;19928;-82
2021/08/07 11:45:01;;;;;;;;;;;20.00;99.90;;;;;;5061954;28;19920;-81
2021/08/07 11:47:27;;;;;;;;;;;20.10;99.90;;;;;;5064830;28;20001;-83
2021/08/07 11:49:53;;;;;;;;;;;20.20;99.90;;;;;;5064550;28;19917;-82
2021/08/07 11:52:20;;;;;;;;;;;20.10;99.90;;;;;;5065552;28;19974;-83
2021/08/07 11:54:51;;;;;;;;;;;20.00;99.90;;;;;;5066728;28;20250;-85
2021/08/07 11:57:23;;;;;;;;;;;20.00;99.90;;;;;;5065175;28;19923;-83
2021/08/07 11:59:49;;;;;;;;;;;20.10;99.90;;;;;;5074339;28;20285;-81
2021/08/07 12:02:17;;;;;;;;;;;20.10;99.90;;;;;;5070279;28;19916;-85
2021/08/07 12:04:43;;;;;;;;;;;20.20;99.90;;;;;;5079650;28;19912;-85
2021/08/07 12:07:10;;;;;;;;;;;20.30;99.90;;;;;;5081846;28;19916;-82
2021/08/07 12:09:36;;;;;;;;;;;20.50;99.90;;;;;;5083842;28;20012;-85
2021/08/07 12:12:02;;;;;;;;;;;20.70;99.90;;;;;;5081595;28;19945;-84
2021/08/07 12:14:27;;;;;;;;;;;20.90;99.90;;;;;;5084231;28;19927;-87
2021/08/07 12:16:53;;;;;;;;;;;21.30;99.90;;;;;;5082810;28;19916;-88
2021/08/07 12:19:24;;;;;;;;;;;21.50;99.90;;;;;;5082504;28;19923;-79
2021/08/07 12:21:50;;;;;;;;;;;21.40;99.90;;;;;;5086830;28;20122;-79
2021/08/07 12:24:21;;;;;;;;;;;21.30;99.90;;;;;;5083269;28;20279;-83
2021/08/07 12:26:48;;;;;;;;;;;21.40;99.90;;;;;;5089570;28;20303;-81
2021/08/07 12:29:15;;;;;;;;;;;21.60;99.90;;;;;;5088519;28;19919;-81
2021/08/07 12:31:49;;;;;;;;;;;21.90;99.90;;;;;;5082245;28;20062;-77
2021/08/07 12:34:19;;;;;;;;;;;22.10;99.90;;;;;;5072236;28;19936;-82
2021/08/07 12:36:57;;;;;;;;;;;22.10;99.90;;;;;;5063471;28;20315;-81
2021/08/07 12:39:23;;;;;;;;;;;22.00;99.90;;;;;;5088912;28;19918;-79
2021/08/07 12:41:48;;;;;;;;;;;21.80;99.90;;;;;;5085920;28;20208;-79
2021/08/07 12:44:21;;;;;;;;;;;21.80;99.90;;;;;;5083557;28;19928;-82
2021/08/07 12:46:47;;;;;;;;;;;21.80;99.90;;;;;;5079307;28;19917;-83
2021/08/07 12:49:13;;;;;;;;;;;22.00;99.90;;;;;;5089654;28;19916;-82
2021/08/07 12:51:39;;;;;;;;;;;22.20;99.90;;;;;;5079348;28;19916;-79
2021/08/07 12:54:15;;;;;;;;;;;22.40;99.90;;;;;;5080186;28;19915;-79
2021/08/07 12:56:45;;;;;;;;;;;22.40;99.90;;;;;;5076804;28;20318;-80
2021/08/07 12:59:11;;;;;;;;;;;22.30;99.90;;;;;;5067329;28;19923;-82
2021/08/07 13:01:38;;;;;;;;;;;22.20;99.90;;;;;;5082721;28;19916;-80
2021/08/07 13:04:04;;;;;;;;;;;22.10;99.90;;;;;;5091903;28;19962;-89
2021/08/07 13:06:31;;;;;;;;;;;22.20;99.90;;;;;;5079671;28;20219;-86
2021/08/07 13:09:17;;;;;;;;;;;22.30;99.90;;;;;;5069316;28;19942;-80
2021/08/07 13:11:59;;;;;;;;;;;22.30;99.90;;;;;;5065502;28;20007;-82
2021/08/07 13:14:25;;;;;;;;;;;22.40;99.90;;;;;;5070490;28;19912;-80
2021/08/07 13:16:50;;;;;;;;;;;22.70;99.90;;;;;;5071206;28;19912;-79
2021/08/07 13:19:17;;;;;;;;;;;22.90;99.90;;;;;;5074187;28;19916;-82
2021/08/07 13:21:43;;;;;;;;;;;23.00;99.90;;;;;;5079449;28;19924;-88
2021/08/07 13:24:28;;;;;;;;;;;23.20;99.90;;;;;;5075824;28;19920;-82
2021/08/07 13:26:54;;;;;;;;;;;23.10;99.90;;;;;;5078536;28;19919;-83
2021/08/07 13:29:20;;;;;;;;;;;22.80;99.90;;;;;;5067890;28;19920;-82
2021/08/07 13:31:46;;;;;;;;;;;22.60;99.90;;;;;;5064418;28;19966;-85
2021/08/07 13:34:12;;;;;;;;;;;22.40;99.90;;;;;;5066291;28;19916;-82
2021/08/07 13:36:38;;;;;;;;;;;22.20;99.90;;;;;;5067082;28;20323;-83
2021/08/07 13:39:03;;;;;;;;;;;22.00;99.90;;;;;;5064355;28;20322;-82
2021/08/07 13:41:29;;;;;;;;;;;22.00;99.90;;;;;;5070276;28;19931;-83
2021/08/07 13:43:54;;;;;;;;;;;22.20;99.90;;;;;;5067267;28;19991;-80
2021/08/07 13:46:20;;;;;;;;;;;22.30;99.90;;;;;;5066604;28;19912;-79
2021/08/07 13:48:46;;;;;;;;;;;22.20;99.90;;;;;;5066601;28;20006;-81
2021/08/07 13:51:11;;;;;;;;;;;22.00;99.90;;;;;;5065404;28;20215;-82
2021/08/07 13:53:37;;;;;;;;;;;21.90;99.90;;;;;;5076648;28;19995;-89
2021/08/07 13:56:03;;;;;;;;;;;21.80;99.90;;;;;;5069246;28;19913;-84
2021/08/07 13:58:29;;;;;;;;;;;21.80;99.90;;;;;;5078264;28;19931;-82
2021/08/07 14:00:54;;;;;;;;;;;21.90;99.90;;;;;;5078126;28;19916;-83
2021/08/07 14:03:22;;;;;;;;;;;22.00;99.90;;;;;;5062997;28;19908;-81
2021/08/07 14:05:49;;;;;;;;;;;22.00;99.90;;;;;;5067547;28;19920;-83
2021/08/07 14:08:14;;;;;;;;;;;22.20;99.90;;;;;;5064806;28;19920;-80
2021/08/07 14:10:40;;;;;;;;;;;22.40;99.90;;;;;;5067142;28;19912;-81
2021/08/07 14:13:06;;;;;;;;;;;22.70;99.90;;;;;;5065503;28;19952;-85
2021/08/07 14:15:31;;;;;;;;;;;22.80;99.90;;;;;;5065186;28;19913;-84
2021/08/07 14:17:59;;;;;;;;;;;22.70;99.90;;;;;;5068419;28;19916;-82